Aérodrome :
LOGIN :

S'inscrire | Disclaimer

   EN    FR    IT 

 










Légende :    VFR   VFR Marginal   IFR   IFR Intensif   IFR Très Intensif
Visi : 
Plafond : 
>= 8 km
>= 3000ft
5 à 8 km
1000 à 3000 ft
1500m à 5 km
500 à 1000 ft
800 à 1500m
200 à 500 ft
< 800m
< 200 ft
Symboles :   Orages  Brouillard  Fortes neiges  Fortes précipitations  Vent > 20 kt
SIGMETs :   Divers  Orages  Givrage  Turbulence  Onde Orograph.  Cendres Volcan.







- Altitude de l'aérodrome : 19 ft
- Code IATA : SMI


LGSM - Aristarchos of Samos

DERNIER METAR :
  • 241650Z 35008G20KT 320V020 CAVOK 14/03 Q1013

METARs EXPIRÉS :
  • 241620Z 36010KT 330V030 CAVOK 14/02 Q1013
  • 241550Z 36007G17KT CAVOK 15/03 Q1013
  • 241450Z 34011G23KT 310V010 CAVOK 15/03 Q1013
  • 241420Z 33010G20KT CAVOK 16/03 Q1013

TAF TAF LGSM
Valide du 24 à 15h jusqu'au 25 à 00h UTC


241400Z 2415/2424 35017G27KT 9999 FEW020
BECMG 2422/2424 35013KT
Pas de NOTAMs connus pour ce terrain.
1 SIGMET publié pour la FIR Athinai (LGGG) :
 
Turbulence forte
LGGG SIGMET 2 VALID 241420/241820 LGAT
LGGG ATHINAI FIR SEV TURB FCST E OF E02300 AND S OF N3700 FL340/380 STNR NC=



MET'MAP, la Météo Aéronautique d'un coup d'oeil ! - Copyright ORBIFLY Décembre 2007 - Disclaimer

ORBIFLY MET'MAP TEAM :

Programmation & Développement : Alexandra Zaïnal
Conception & Développement : Baudouin d'Aumeries
Co-Programmation & Développement : Marc-Olivier Méhu
Soutien technique & logistique : Manuel Goepfert

Contact : metmap@orbifly.com




SOURCES & CREDITS :

   NOAA